sensor_id;sensor_type;location;lat;lon;timestamp;temperature;humidity
5041;DHT22;2539;52.568;13.364;2022-11-20T00:05:33;1.20;99.90
5041;DHT22;2539;52.568;13.364;2022-11-20T00:07:58;1.20;99.90
5041;DHT22;2539;52.568;13.364;2022-11-20T00:12:50;1.20;99.90
5041;DHT22;2539;52.568;13.364;2022-11-20T00:20:10;1.20;99.90
5041;DHT22;2539;52.568;13.364;2022-11-20T00:34:50;1.10;99.90
5041;DHT22;2539;52.568;13.364;2022-11-20T00:39:43;1.10;99.90
5041;DHT22;2539;52.568;13.364;2022-11-20T00:47:04;1.10;99.90
5041;DHT22;2539;52.568;13.364;2022-11-20T00:51:57;1.10;99.90
5041;DHT22;2539;52.568;13.364;2022-11-20T00:54:24;1.10;99.90
5041;DHT22;2539;52.568;13.364;2022-11-20T00:56:52;1.10;99.90
5041;DHT22;2539;52.568;13.364;2022-11-20T01:09:13;1.10;99.90
5041;DHT22;2539;52.568;13.364;2022-11-20T01:11:42;1.10;99.90
5041;DHT22;2539;52.568;13.364;2022-11-20T01:14:16;1.10;99.90
5041;DHT22;2539;52.568;13.364;2022-11-20T01:16:45;1.10;99.90
5041;DHT22;2539;52.568;13.364;2022-11-20T01:19:18;1.10;99.90
5041;DHT22;2539;52.568;13.364;2022-11-20T01:21:45;1.10;99.90
5041;DHT22;2539;52.568;13.364;2022-11-20T01:24:15;-0.50;99.90
5041;DHT22;2539;52.568;13.364;2022-11-20T01:26:43;1.10;99.90
5041;DHT22;2539;52.568;13.364;2022-11-20T01:29:16;1.20;99.90
5041;DHT22;2539;52.568;13.364;2022-11-20T01:31:43;1.20;99.90
5041;DHT22;2539;52.568;13.364;2022-11-20T01:34:13;1.20;99.90
5041;DHT22;2539;52.568;13.364;2022-11-20T01:36:40;1.20;99.90
5041;DHT22;2539;52.568;13.364;2022-11-20T01:39:15;1.20;99.90
5041;DHT22;2539;52.568;13.364;2022-11-20T01:41:43;1.20;99.90
5041;DHT22;2539;52.568;13.364;2022-11-20T01:44:48;1.10;99.90
5041;DHT22;2539;52.568;13.364;2022-11-20T01:47:20;1.00;99.90
5041;DHT22;2539;52.568;13.364;2022-11-20T01:52:32;1.10;99.90
5041;DHT22;2539;52.568;13.364;2022-11-20T01:55:09;1.10;99.90
5041;DHT22;2539;52.568;13.364;2022-11-20T01:57:38;1.10;99.90
5041;DHT22;2539;52.568;13.364;2022-11-20T02:00:09;1.10;99.90
5041;DHT22;2539;52.568;13.364;2022-11-20T02:02:36;1.10;99.90
5041;DHT22;2539;52.568;13.364;2022-11-20T02:07:56;1.00;99.90
5041;DHT22;2539;52.568;13.364;2022-11-20T02:10:23;1.00;99.90
5041;DHT22;2539;52.568;13.364;2022-11-20T02:15:36;1.00;99.90
5041;DHT22;2539;52.568;13.364;2022-11-20T02:25:32;0.90;99.90
5041;DHT22;2539;52.568;13.364;2022-11-20T02:30:28;1.00;99.90
5041;DHT22;2539;52.568;13.364;2022-11-20T02:37:51;1.00;99.90
5041;DHT22;2539;52.568;13.364;2022-11-20T02:45:12;1.00;99.90
5041;DHT22;2539;52.568;13.364;2022-11-20T02:47:38;1.00;99.90
5041;DHT22;2539;52.568;13.364;2022-11-20T02:50:05;1.00;99.90
5041;DHT22;2539;52.568;13.364;2022-11-20T02:54:58;1.00;99.90
5041;DHT22;2539;52.568;13.364;2022-11-20T03:12:07;1.00;99.90
5041;DHT22;2539;52.568;13.364;2022-11-20T03:14:34;1.00;99.90
5041;DHT22;2539;52.568;13.364;2022-11-20T03:17:00;0.90;99.90
5041;DHT22;2539;52.568;13.364;2022-11-20T03:24:20;0.90;99.90
5041;DHT22;2539;52.568;13.364;2022-11-20T03:31:40;1.00;99.90
5041;DHT22;2539;52.568;13.364;2022-11-20T03:34:09;1.00;99.90
5041;DHT22;2539;52.568;13.364;2022-11-20T03:36:37;1.00;99.90
5041;DHT22;2539;52.568;13.364;2022-11-20T03:39:04;1.00;99.90
5041;DHT22;2539;52.568;13.364;2022-11-20T03:41:35;0.90;99.90
5041;DHT22;2539;52.568;13.364;2022-11-20T03:44:03;0.90;99.90
5041;DHT22;2539;52.568;13.364;2022-11-20T03:46:30;0.90;99.90
5041;DHT22;2539;52.568;13.364;2022-11-20T03:51:31;1.00;99.90
5041;DHT22;2539;52.568;13.364;2022-11-20T03:54:01;0.90;99.90
5041;DHT22;2539;52.568;13.364;2022-11-20T03:56:30;0.90;99.90
5041;DHT22;2539;52.568;13.364;2022-11-20T03:58:57;0.90;99.90
5041;DHT22;2539;52.568;13.364;2022-11-20T04:01:29;0.90;99.90
5041;DHT22;2539;52.568;13.364;2022-11-20T04:03:56;0.90;99.90
5041;DHT22;2539;52.568;13.364;2022-11-20T04:06:25;0.90;99.90
5041;DHT22;2539;52.568;13.364;2022-11-20T04:08:53;0.90;99.90
5041;DHT22;2539;52.568;13.364;2022-11-20T04:11:22;0.80;99.90
5041;DHT22;2539;52.568;13.364;2022-11-20T04:13:57;0.80;99.90
5041;DHT22;2539;52.568;13.364;2022-11-20T04:16:25;0.90;99.90
5041;DHT22;2539;52.568;13.364;2022-11-20T04:18:53;0.80;99.90
5041;DHT22;2539;52.568;13.364;2022-11-20T04:28:40;0.80;99.90
5041;DHT22;2539;52.568;13.364;2022-11-20T04:31:12;0.80;99.90
5041;DHT22;2539;52.568;13.364;2022-11-20T04:36:20;0.80;99.90
5041;DHT22;2539;52.568;13.364;2022-11-20T04:38:57;0.70;99.90
5041;DHT22;2539;52.568;13.364;2022-11-20T04:41:26;0.70;99.90
5041;DHT22;2539;52.568;13.364;2022-11-20T04:43:55;0.70;99.90
5041;DHT22;2539;52.568;13.364;2022-11-20T04:46:26;0.70;99.90
5041;DHT22;2539;52.568;13.364;2022-11-20T04:48:53;0.70;99.90
5041;DHT22;2539;52.568;13.364;2022-11-20T04:53:46;0.70;99.90
5041;DHT22;2539;52.568;13.364;2022-11-20T04:56:13;0.70;99.90
5041;DHT22;2539;52.568;13.364;2022-11-20T05:01:15;0.70;99.90
5041;DHT22;2539;52.568;13.364;2022-11-20T05:03:42;0.70;99.90
5041;DHT22;2539;52.568;13.364;2022-11-20T05:06:10;0.70;99.90
5041;DHT22;2539;52.568;13.364;2022-11-20T05:08:37;0.70;99.90
5041;DHT22;2539;52.568;13.364;2022-11-20T05:11:08;0.70;99.90
5041;DHT22;2539;52.568;13.364;2022-11-20T05:13:34;0.70;99.90
5041;DHT22;2539;52.568;13.364;2022-11-20T05:16:09;0.70;99.90
5041;DHT22;2539;52.568;13.364;2022-11-20T05:18:36;0.70;99.90
5041;DHT22;2539;52.568;13.364;2022-11-20T05:23:30;0.70;99.90
5041;DHT22;2539;52.568;13.364;2022-11-20T05:25:57;0.80;99.90
5041;DHT22;2539;52.568;13.364;2022-11-20T05:30:51;0.70;99.90
5041;DHT22;2539;52.568;13.364;2022-11-20T05:43:04;0.70;99.90
5041;DHT22;2539;52.568;13.364;2022-11-20T05:45:31;0.70;99.90
5041;DHT22;2539;52.568;13.364;2022-11-20T05:47:58;0.70;99.90
5041;DHT22;2539;52.568;13.364;2022-11-20T05:50:27;0.70;99.90
5041;DHT22;2539;52.568;13.364;2022-11-20T05:55:20;0.80;99.90
5041;DHT22;2539;52.568;13.364;2022-11-20T05:57:46;0.80;99.90
5041;DHT22;2539;52.568;13.364;2022-11-20T06:00:13;0.80;99.90
5041;DHT22;2539;52.568;13.364;2022-11-20T06:02:40;0.80;99.90
5041;DHT22;2539;52.568;13.364;2022-11-20T06:05:06;0.80;99.90
5041;DHT22;2539;52.568;13.364;2022-11-20T06:07:33;0.80;99.90
5041;DHT22;2539;52.568;13.364;2022-11-20T06:09:59;0.80;99.90
5041;DHT22;2539;52.568;13.364;2022-11-20T06:14:52;0.80;99.90
5041;DHT22;2539;52.568;13.364;2022-11-20T06:17:19;0.80;99.90
5041;DHT22;2539;52.568;13.364;2022-11-20T06:19:44;0.80;99.90
5041;DHT22;2539;52.568;13.364;2022-11-20T06:31:55;0.80;99.90
5041;DHT22;2539;52.568;13.364;2022-11-20T06:41:42;0.90;99.90
5041;DHT22;2539;52.568;13.364;2022-11-20T06:46:34;0.90;99.90
5041;DHT22;2539;52.568;13.364;2022-11-20T06:53:54;1.00;99.90
5041;DHT22;2539;52.568;13.364;2022-11-20T06:56:21;0.90;99.90
5041;DHT22;2539;52.568;13.364;2022-11-20T07:03:41;1.00;99.90
5041;DHT22;2539;52.568;13.364;2022-11-20T07:08:35;1.10;99.90
5041;DHT22;2539;52.568;13.364;2022-11-20T07:11:04;1.10;99.90
5041;DHT22;2539;52.568;13.364;2022-11-20T07:13:32;1.20;99.90
5041;DHT22;2539;52.568;13.364;2022-11-20T07:16:06;1.20;99.90
5041;DHT22;2539;52.568;13.364;2022-11-20T07:18:33;1.20;99.90
5041;DHT22;2539;52.568;13.364;2022-11-20T07:21:05;1.10;99.90
5041;DHT22;2539;52.568;13.364;2022-11-20T07:26:06;1.20;99.90
5041;DHT22;2539;52.568;13.364;2022-11-20T07:28:33;2.00;99.90
5041;DHT22;2539;52.568;13.364;2022-11-20T07:30:59;1.30;99.90
5041;DHT22;2539;52.568;13.364;2022-11-20T07:33:26;1.30;99.90
5041;DHT22;2539;52.568;13.364;2022-11-20T07:35:52;1.30;99.90
5041;DHT22;2539;52.568;13.364;2022-11-20T07:38:18;1.40;99.90
5041;DHT22;2539;52.568;13.364;2022-11-20T07:45:38;1.50;99.90
5041;DHT22;2539;52.568;13.364;2022-11-20T07:53:04;1.50;99.90
5041;DHT22;2539;52.568;13.364;2022-11-20T07:55:31;1.50;99.90
5041;DHT22;2539;52.568;13.364;2022-11-20T08:00:25;1.60;99.90
5041;DHT22;2539;52.568;13.364;2022-11-20T08:02:53;1.60;99.90
5041;DHT22;2539;52.568;13.364;2022-11-20T08:05:19;1.70;99.90
5041;DHT22;2539;52.568;13.364;2022-11-20T08:10:13;1.80;99.90
5041;DHT22;2539;52.568;13.364;2022-11-20T08:12:47;1.80;99.90
5041;DHT22;2539;52.568;13.364;2022-11-20T08:15:32;1.80;99.90
5041;DHT22;2539;52.568;13.364;2022-11-20T08:18:09;1.80;99.90
5041;DHT22;2539;52.568;13.364;2022-11-20T08:20:37;1.70;99.90
5041;DHT22;2539;52.568;13.364;2022-11-20T08:23:06;1.70;99.90
5041;DHT22;2539;52.568;13.364;2022-11-20T08:25:33;1.70;99.90
5041;DHT22;2539;52.568;13.364;2022-11-20T08:28:02;1.70;99.90
5041;DHT22;2539;52.568;13.364;2022-11-20T08:33:00;1.60;99.90
5041;DHT22;2539;52.568;13.364;2022-11-20T08:35:27;1.50;99.90
5041;DHT22;2539;52.568;13.364;2022-11-20T08:37:53;1.60;99.90
5041;DHT22;2539;52.568;13.364;2022-11-20T08:40:20;1.60;99.90
5041;DHT22;2539;52.568;13.364;2022-11-20T08:42:48;1.60;99.90
5041;DHT22;2539;52.568;13.364;2022-11-20T08:45:14;1.80;99.90
5041;DHT22;2539;52.568;13.364;2022-11-20T08:50:09;2.00;99.90
5041;DHT22;2539;52.568;13.364;2022-11-20T08:52:36;2.10;99.90
5041;DHT22;2539;52.568;13.364;2022-11-20T08:55:03;2.10;99.90
5041;DHT22;2539;52.568;13.364;2022-11-20T08:57:34;2.10;99.90
5041;DHT22;2539;52.568;13.364;2022-11-20T09:00:03;2.10;99.90
5041;DHT22;2539;52.568;13.364;2022-11-20T09:04:56;2.10;99.90
5041;DHT22;2539;52.568;13.364;2022-11-20T09:09:49;2.00;99.90
5041;DHT22;2539;52.568;13.364;2022-11-20T09:14:42;2.00;99.90
5041;DHT22;2539;52.568;13.364;2022-11-20T09:17:10;2.00;99.90
5041;DHT22;2539;52.568;13.364;2022-11-20T09:19:39;2.00;99.90
5041;DHT22;2539;52.568;13.364;2022-11-20T09:27:02;2.30;99.90
5041;DHT22;2539;52.568;13.364;2022-11-20T09:29:29;2.20;99.90
5041;DHT22;2539;52.568;13.364;2022-11-20T09:31:55;2.20;99.90
5041;DHT22;2539;52.568;13.364;2022-11-20T09:34:22;2.30;99.90
5041;DHT22;2539;52.568;13.364;2022-11-20T09:36:48;2.30;99.90
5041;DHT22;2539;52.568;13.364;2022-11-20T09:41:56;2.40;99.90
5041;DHT22;2539;52.568;13.364;2022-11-20T09:44:48;2.40;99.90
5041;DHT22;2539;52.568;13.364;2022-11-20T09:47:36;2.40;99.90
5041;DHT22;2539;52.568;13.364;2022-11-20T09:52:52;2.60;99.90
5041;DHT22;2539;52.568;13.364;2022-11-20T09:57:51;2.70;99.90
5041;DHT22;2539;52.568;13.364;2022-11-20T10:02:55;2.90;99.90
5041;DHT22;2539;52.568;13.364;2022-11-20T10:05:40;2.90;99.90
5041;DHT22;2539;52.568;13.364;2022-11-20T10:08:22;2.90;99.90
5041;DHT22;2539;52.568;13.364;2022-11-20T10:10:54;2.90;99.90
5041;DHT22;2539;52.568;13.364;2022-11-20T10:13:44;2.80;99.90
5041;DHT22;2539;52.568;13.364;2022-11-20T10:24:42;2.80;99.90
5041;DHT22;2539;52.568;13.364;2022-11-20T10:27:39;2.80;99.90
5041;DHT22;2539;52.568;13.364;2022-11-20T10:30:17;2.70;99.90
5041;DHT22;2539;52.568;13.364;2022-11-20T10:33:06;2.70;99.90
5041;DHT22;2539;52.568;13.364;2022-11-20T10:35:43;2.70;99.90
5041;DHT22;2539;52.568;13.364;2022-11-20T10:38:17;2.50;99.90
5041;DHT22;2539;52.568;13.364;2022-11-20T10:40:51;2.70;99.90
5041;DHT22;2539;52.568;13.364;2022-11-20T10:43:21;2.70;99.90
5041;DHT22;2539;52.568;13.364;2022-11-20T10:45:55;2.80;99.90
5041;DHT22;2539;52.568;13.364;2022-11-20T10:48:25;2.90;99.90
5041;DHT22;2539;52.568;13.364;2022-11-20T10:56:47;3.20;99.90
5041;DHT22;2539;52.568;13.364;2022-11-20T10:59:25;3.20;99.90
5041;DHT22;2539;52.568;13.364;2022-11-20T11:05:14;3.40;99.90
5041;DHT22;2539;52.568;13.364;2022-11-20T11:07:29;3.30;99.90
5041;DHT22;2539;52.568;13.364;2022-11-20T11:09:57;3.30;99.90
5041;DHT22;2539;52.568;13.364;2022-11-20T11:12:25;3.40;99.90
5041;DHT22;2539;52.568;13.364;2022-11-20T11:14:56;3.40;99.90
5041;DHT22;2539;52.568;13.364;2022-11-20T11:17:29;3.50;99.90
5041;DHT22;2539;52.568;13.364;2022-11-20T11:20:15;3.40;99.90
5041;DHT22;2539;52.568;13.364;2022-11-20T11:22:48;3.30;99.90
5041;DHT22;2539;52.568;13.364;2022-11-20T11:30:19;3.40;99.90
5041;DHT22;2539;52.568;13.364;2022-11-20T11:35:27;3.30;99.90
5041;DHT22;2539;52.568;13.364;2022-11-20T11:38:02;3.30;99.90
5041;DHT22;2539;52.568;13.364;2022-11-20T11:40:34;3.30;99.90
5041;DHT22;2539;52.568;13.364;2022-11-20T11:43:05;3.30;99.90
5041;DHT22;2539;52.568;13.364;2022-11-20T11:45:55;3.20;99.90
5041;DHT22;2539;52.568;13.364;2022-11-20T11:50:50;3.00;99.90
5041;DHT22;2539;52.568;13.364;2022-11-20T11:53:23;2.80;99.90
5041;DHT22;2539;52.568;13.364;2022-11-20T11:56:08;2.60;99.90
5041;DHT22;2539;52.568;13.364;2022-11-20T11:58:50;2.50;99.90
5041;DHT22;2539;52.568;13.364;2022-11-20T12:01:47;2.50;99.90
5041;DHT22;2539;52.568;13.364;2022-11-20T12:07:15;2.50;99.90
5041;DHT22;2539;52.568;13.364;2022-11-20T12:09:47;2.40;99.90
5041;DHT22;2539;52.568;13.364;2022-11-20T12:12:27;2.30;99.90
5041;DHT22;2539;52.568;13.364;2022-11-20T12:14:56;2.20;99.90
5041;DHT22;2539;52.568;13.364;2022-11-20T12:22:40;2.00;99.90
5041;DHT22;2539;52.568;13.364;2022-11-20T12:30:08;2.10;99.90
5041;DHT22;2539;52.568;13.364;2022-11-20T12:33:01;2.20;99.90
5041;DHT22;2539;52.568;13.364;2022-11-20T12:35:52;2.30;99.90
5041;DHT22;2539;52.568;13.364;2022-11-20T12:38:36;2.30;99.90
5041;DHT22;2539;52.568;13.364;2022-11-20T12:44:31;2.40;99.90
5041;DHT22;2539;52.568;13.364;2022-11-20T12:47:55;2.40;99.90
5041;DHT22;2539;52.568;13.364;2022-11-20T12:50:32;2.40;99.90
5041;DHT22;2539;52.568;13.364;2022-11-20T12:53:22;2.40;99.90
5041;DHT22;2539;52.568;13.364;2022-11-20T12:58:50;2.50;99.90
5041;DHT22;2539;52.568;13.364;2022-11-20T13:01:36;2.60;99.90
5041;DHT22;2539;52.568;13.364;2022-11-20T13:04:23;2.70;99.90
5041;DHT22;2539;52.568;13.364;2022-11-20T13:06:58;2.80;99.90
5041;DHT22;2539;52.568;13.364;2022-11-20T13:09:25;2.90;99.90
5041;DHT22;2539;52.568;13.364;2022-11-20T13:12:03;3.00;99.90
5041;DHT22;2539;52.568;13.364;2022-11-20T13:15:08;3.00;99.90
5041;DHT22;2539;52.568;13.364;2022-11-20T13:17:47;2.90;99.90
5041;DHT22;2539;52.568;13.364;2022-11-20T13:20:18;3.00;99.90
5041;DHT22;2539;52.568;13.364;2022-11-20T13:22:49;2.80;99.90
5041;DHT22;2539;52.568;13.364;2022-11-20T13:25:26;2.70;99.90
5041;DHT22;2539;52.568;13.364;2022-11-20T13:27:54;2.60;99.90
5041;DHT22;2539;52.568;13.364;2022-11-20T13:30:23;2.50;99.90
5041;DHT22;2539;52.568;13.364;2022-11-20T13:32:54;2.50;99.90
5041;DHT22;2539;52.568;13.364;2022-11-20T13:35:33;2.50;99.90
5041;DHT22;2539;52.568;13.364;2022-11-20T13:38:13;2.40;99.90
5041;DHT22;2539;52.568;13.364;2022-11-20T13:41:06;2.40;99.90
5041;DHT22;2539;52.568;13.364;2022-11-20T13:43:58;2.50;99.90
5041;DHT22;2539;52.568;13.364;2022-11-20T13:46:39;2.40;99.90
5041;DHT22;2539;52.568;13.364;2022-11-20T13:49:08;2.40;99.90
5041;DHT22;2539;52.568;13.364;2022-11-20T13:51:45;2.50;99.90
5041;DHT22;2539;52.568;13.364;2022-11-20T13:54:23;2.40;99.90
5041;DHT22;2539;52.568;13.364;2022-11-20T13:57:40;2.30;99.90
5041;DHT22;2539;52.568;13.364;2022-11-20T14:00:22;2.20;99.90
5041;DHT22;2539;52.568;13.364;2022-11-20T14:03:05;2.20;99.90
5041;DHT22;2539;52.568;13.364;2022-11-20T14:05:39;2.20;99.90
5041;DHT22;2539;52.568;13.364;2022-11-20T14:08:13;2.00;99.90
5041;DHT22;2539;52.568;13.364;2022-11-20T14:13:12;2.00;99.90
5041;DHT22;2539;52.568;13.364;2022-11-20T14:15:41;1.90;99.90
5041;DHT22;2539;52.568;13.364;2022-11-20T14:18:14;2.00;99.90
5041;DHT22;2539;52.568;13.364;2022-11-20T14:20:41;2.00;99.90
5041;DHT22;2539;52.568;13.364;2022-11-20T14:23:10;2.10;99.90
5041;DHT22;2539;52.568;13.364;2022-11-20T14:25:37;2.10;99.90
5041;DHT22;2539;52.568;13.364;2022-11-20T14:28:11;2.00;99.90
5041;DHT22;2539;52.568;13.364;2022-11-20T14:30:48;2.00;99.90
5041;DHT22;2539;52.568;13.364;2022-11-20T14:35:48;2.00;99.90
5041;DHT22;2539;52.568;13.364;2022-11-20T14:38:17;2.00;99.90
5041;DHT22;2539;52.568;13.364;2022-11-20T14:43:24;1.90;99.90
5041;DHT22;2539;52.568;13.364;2022-11-20T14:46:03;2.00;99.90
5041;DHT22;2539;52.568;13.364;2022-11-20T14:48:33;2.00;99.90
5041;DHT22;2539;52.568;13.364;2022-11-20T14:55:58;1.90;99.90
5041;DHT22;2539;52.568;13.364;2022-11-20T14:58:27;1.90;99.90
5041;DHT22;2539;52.568;13.364;2022-11-20T15:00:56;1.90;99.90
5041;DHT22;2539;52.568;13.364;2022-11-20T15:03:30;1.90;99.90
5041;DHT22;2539;52.568;13.364;2022-11-20T15:10:50;3.90;99.90
5041;DHT22;2539;52.568;13.364;2022-11-20T15:13:20;1.90;99.90
5041;DHT22;2539;52.568;13.364;2022-11-20T15:15:50;1.90;99.90
5041;DHT22;2539;52.568;13.364;2022-11-20T15:18:32;1.90;99.90
5041;DHT22;2539;52.568;13.364;2022-11-20T15:21:06;1.90;99.90
5041;DHT22;2539;52.568;13.364;2022-11-20T15:23:35;1.90;99.90
5041;DHT22;2539;52.568;13.364;2022-11-20T15:26:04;1.90;99.90
5041;DHT22;2539;52.568;13.364;2022-11-20T15:28:33;1.90;99.90
5041;DHT22;2539;52.568;13.364;2022-11-20T15:31:00;1.90;99.90
5041;DHT22;2539;52.568;13.364;2022-11-20T15:35:52;1.90;99.90
5041;DHT22;2539;52.568;13.364;2022-11-20T15:45:44;1.80;99.90
5041;DHT22;2539;52.568;13.364;2022-11-20T15:53:19;1.70;99.90
5041;DHT22;2539;52.568;13.364;2022-11-20T16:00:39;1.70;99.90
5041;DHT22;2539;52.568;13.364;2022-11-20T16:18:14;0.60;99.90
5041;DHT22;2539;52.568;13.364;2022-11-20T16:30:31;0.40;99.90
5041;DHT22;2539;52.568;13.364;2022-11-20T16:32:58;0.50;99.90
5041;DHT22;2539;52.568;13.364;2022-11-20T16:35:26;0.40;99.90
5041;DHT22;2539;52.568;13.364;2022-11-20T16:37:55;0.40;99.90
5041;DHT22;2539;52.568;13.364;2022-11-20T16:40:21;0.30;99.90
5041;DHT22;2539;52.568;13.364;2022-11-20T16:47:39;0.40;99.90
5041;DHT22;2539;52.568;13.364;2022-11-20T16:50:05;0.50;99.90
5041;DHT22;2539;52.568;13.364;2022-11-20T16:52:32;0.60;99.90
5041;DHT22;2539;52.568;13.364;2022-11-20T16:57:28;0.70;99.90
5041;DHT22;2539;52.568;13.364;2022-11-20T16:59:55;0.80;99.90
5041;DHT22;2539;52.568;13.364;2022-11-20T17:04:47;0.80;99.90
5041;DHT22;2539;52.568;13.364;2022-11-20T17:21:53;1.10;99.90
5041;DHT22;2539;52.568;13.364;2022-11-20T17:24:19;1.10;99.90
5041;DHT22;2539;52.568;13.364;2022-11-20T17:26:48;1.10;99.90
5041;DHT22;2539;52.568;13.364;2022-11-20T17:29:18;1.10;99.90
5041;DHT22;2539;52.568;13.364;2022-11-20T17:31:49;1.10;99.90
5041;DHT22;2539;52.568;13.364;2022-11-20T17:34:16;1.20;99.90
5041;DHT22;2539;52.568;13.364;2022-11-20T17:36:43;1.20;99.90
5041;DHT22;2539;52.568;13.364;2022-11-20T17:39:14;1.20;99.90
5041;DHT22;2539;52.568;13.364;2022-11-20T17:44:11;1.30;99.90
5041;DHT22;2539;52.568;13.364;2022-11-20T17:49:04;1.30;99.90
5041;DHT22;2539;52.568;13.364;2022-11-20T17:51:32;1.10;99.90
5041;DHT22;2539;52.568;13.364;2022-11-20T17:54:01;1.30;99.90
5041;DHT22;2539;52.568;13.364;2022-11-20T17:56:32;1.30;99.90
5041;DHT22;2539;52.568;13.364;2022-11-20T18:01:45;1.30;99.90
5041;DHT22;2539;52.568;13.364;2022-11-20T18:04:11;1.30;99.90
5041;DHT22;2539;52.568;13.364;2022-11-20T18:09:06;1.30;99.90
5041;DHT22;2539;52.568;13.364;2022-11-20T18:11:35;1.20;99.90
5041;DHT22;2539;52.568;13.364;2022-11-20T18:14:03;1.20;99.90
5041;DHT22;2539;52.568;13.364;2022-11-20T18:16:54;1.10;99.90
5041;DHT22;2539;52.568;13.364;2022-11-20T18:19:23;1.10;99.90
5041;DHT22;2539;52.568;13.364;2022-11-20T18:21:50;1.10;99.90
5041;DHT22;2539;52.568;13.364;2022-11-20T18:26:44;1.10;99.90
5041;DHT22;2539;52.568;13.364;2022-11-20T18:29:11;1.10;99.90
5041;DHT22;2539;52.568;13.364;2022-11-20T18:41:28;1.00;99.90
5041;DHT22;2539;52.568;13.364;2022-11-20T18:44:24;1.10;99.90
5041;DHT22;2539;52.568;13.364;2022-11-20T18:47:11;1.00;99.90
5041;DHT22;2539;52.568;13.364;2022-11-20T18:49:38;1.00;99.90
5041;DHT22;2539;52.568;13.364;2022-11-20T18:52:04;0.80;99.90
5041;DHT22;2539;52.568;13.364;2022-11-20T18:54:31;0.80;99.90
5041;DHT22;2539;52.568;13.364;2022-11-20T19:04:17;0.70;99.90
5041;DHT22;2539;52.568;13.364;2022-11-20T19:06:45;0.70;99.90
5041;DHT22;2539;52.568;13.364;2022-11-20T19:09:14;0.80;99.90
5041;DHT22;2539;52.568;13.364;2022-11-20T19:14:07;0.90;99.90
5041;DHT22;2539;52.568;13.364;2022-11-20T19:19:02;0.90;99.90
5041;DHT22;2539;52.568;13.364;2022-11-20T19:21:29;0.90;99.90
5041;DHT22;2539;52.568;13.364;2022-11-20T19:23:57;0.90;99.90
5041;DHT22;2539;52.568;13.364;2022-11-20T19:26:24;0.90;99.90
5041;DHT22;2539;52.568;13.364;2022-11-20T19:31:20;0.90;99.90
5041;DHT22;2539;52.568;13.364;2022-11-20T19:33:55;1.00;99.90
5041;DHT22;2539;52.568;13.364;2022-11-20T19:36:27;1.00;99.90
5041;DHT22;2539;52.568;13.364;2022-11-20T19:38:54;0.90;99.90
5041;DHT22;2539;52.568;13.364;2022-11-20T19:41:24;1.00;99.90
5041;DHT22;2539;52.568;13.364;2022-11-20T19:43:55;1.00;99.90
5041;DHT22;2539;52.568;13.364;2022-11-20T19:46:23;0.90;99.90
5041;DHT22;2539;52.568;13.364;2022-11-20T19:48:50;0.90;99.90
5041;DHT22;2539;52.568;13.364;2022-11-20T19:51:23;0.90;99.90
5041;DHT22;2539;52.568;13.364;2022-11-20T19:58:43;1.00;99.90
5041;DHT22;2539;52.568;13.364;2022-11-20T20:01:15;1.00;99.90
5041;DHT22;2539;52.568;13.364;2022-11-20T20:06:13;1.00;99.90
5041;DHT22;2539;52.568;13.364;2022-11-20T20:08:40;1.00;99.90
5041;DHT22;2539;52.568;13.364;2022-11-20T20:11:15;0.90;99.90
5041;DHT22;2539;52.568;13.364;2022-11-20T20:13:42;0.90;99.90
5041;DHT22;2539;52.568;13.364;2022-11-20T20:16:13;0.90;99.90
5041;DHT22;2539;52.568;13.364;2022-11-20T20:18:40;0.90;99.90
5041;DHT22;2539;52.568;13.364;2022-11-20T20:21:09;0.80;99.90
5041;DHT22;2539;52.568;13.364;2022-11-20T20:26:04;0.80;99.90
5041;DHT22;2539;52.568;13.364;2022-11-20T20:31:05;0.60;99.90
5041;DHT22;2539;52.568;13.364;2022-11-20T20:35:58;0.60;99.90
5041;DHT22;2539;52.568;13.364;2022-11-20T20:43:18;0.60;99.90
5041;DHT22;2539;52.568;13.364;2022-11-20T20:45:48;0.60;99.90
5041;DHT22;2539;52.568;13.364;2022-11-20T20:48:17;0.50;99.90
5041;DHT22;2539;52.568;13.364;2022-11-20T20:50:59;0.50;99.90
5041;DHT22;2539;52.568;13.364;2022-11-20T20:53:29;0.50;99.90
5041;DHT22;2539;52.568;13.364;2022-11-20T20:55:57;0.50;99.90
5041;DHT22;2539;52.568;13.364;2022-11-20T21:00:51;0.50;99.90
5041;DHT22;2539;52.568;13.364;2022-11-20T21:03:17;0.40;99.90
5041;DHT22;2539;52.568;13.364;2022-11-20T21:05:45;0.40;99.90
5041;DHT22;2539;52.568;13.364;2022-11-20T21:08:11;0.30;99.90
5041;DHT22;2539;52.568;13.364;2022-11-20T21:10:48;0.20;99.90
5041;DHT22;2539;52.568;13.364;2022-11-20T21:15:42;0.00;99.90
5041;DHT22;2539;52.568;13.364;2022-11-20T21:20:40;-0.20;99.90
5041;DHT22;2539;52.568;13.364;2022-11-20T21:23:26;-0.30;99.90
5041;DHT22;2539;52.568;13.364;2022-11-20T21:30:46;-0.50;99.90
5041;DHT22;2539;52.568;13.364;2022-11-20T21:33:12;-0.60;99.90
5041;DHT22;2539;52.568;13.364;2022-11-20T21:43:00;-0.70;99.90
5041;DHT22;2539;52.568;13.364;2022-11-20T21:47:53;-0.70;99.90
5041;DHT22;2539;52.568;13.364;2022-11-20T21:50:19;-0.80;99.90
5041;DHT22;2539;52.568;13.364;2022-11-20T21:57:38;-0.80;99.90
5041;DHT22;2539;52.568;13.364;2022-11-20T22:00:05;-0.80;99.90
5041;DHT22;2539;52.568;13.364;2022-11-20T22:07:25;-0.90;99.90
5041;DHT22;2539;52.568;13.364;2022-11-20T22:17:13;-0.90;99.90
5041;DHT22;2539;52.568;13.364;2022-11-20T22:19:39;-1.00;99.90
5041;DHT22;2539;52.568;13.364;2022-11-20T22:24:31;-1.00;99.90
5041;DHT22;2539;52.568;13.364;2022-11-20T22:29:24;-1.00;99.90
5041;DHT22;2539;52.568;13.364;2022-11-20T22:31:51;-1.00;99.90
5041;DHT22;2539;52.568;13.364;2022-11-20T22:44:05;-1.10;99.90
5041;DHT22;2539;52.568;13.364;2022-11-20T22:46:33;-1.10;99.90
5041;DHT22;2539;52.568;13.364;2022-11-20T22:49:01;-1.20;99.90
5041;DHT22;2539;52.568;13.364;2022-11-20T22:51:32;-1.20;99.90
5041;DHT22;2539;52.568;13.364;2022-11-20T22:56:26;-1.30;99.90
5041;DHT22;2539;52.568;13.364;2022-11-20T22:58:52;-1.40;99.90
5041;DHT22;2539;52.568;13.364;2022-11-20T23:01:24;-1.50;99.90
5041;DHT22;2539;52.568;13.364;2022-11-20T23:03:54;-1.50;99.90
5041;DHT22;2539;52.568;13.364;2022-11-20T23:06:21;-1.50;99.90
5041;DHT22;2539;52.568;13.364;2022-11-20T23:08:48;-1.50;99.90
5041;DHT22;2539;52.568;13.364;2022-11-20T23:11:22;-1.40;99.90
5041;DHT22;2539;52.568;13.364;2022-11-20T23:13:54;-1.40;99.90
5041;DHT22;2539;52.568;13.364;2022-11-20T23:19:00;-1.40;99.90
5041;DHT22;2539;52.568;13.364;2022-11-20T23:21:27;-1.30;99.90
5041;DHT22;2539;52.568;13.364;2022-11-20T23:23:55;-1.30;99.90
5041;DHT22;2539;52.568;13.364;2022-11-20T23:26:24;-1.10;99.90
5041;DHT22;2539;52.568;13.364;2022-11-20T23:28:53;-1.10;99.90
5041;DHT22;2539;52.568;13.364;2022-11-20T23:36:13;-0.90;99.90
5041;DHT22;2539;52.568;13.364;2022-11-20T23:43:33;-0.70;99.90
5041;DHT22;2539;52.568;13.364;2022-11-20T23:46:00;-0.60;99.90
5041;DHT22;2539;52.568;13.364;2022-11-20T23:48:29;-0.40;99.90
5041;DHT22;2539;52.568;13.364;2022-11-20T23:53:22;-0.20;99.90
5041;DHT22;2539;52.568;13.364;2022-11-20T23:55:51;-0.30;99.90
5041;DHT22;2539;52.568;13.364;2022-11-20T23:58:18;-0.10;99.90
